Time;durP1;ratioP1;P1;durP2;ratioP2;P2;SDS_P1;SDS_P2;PMS_P1;PMS_P2;Temp;Humidity;BMP_temperature;BMP_pressure;BME280_temperature;BME280_humidity;BME280_pressure;Samples;Min_cycle;Max_cycle;Signal;HPM_P1;HPM_P2
2022/07/14 00:02:21;;;;;;;11.73;4.03;;;20.30;39.20;;;;;;5115675;28;20242;-83
2022/07/14 00:04:50;;;;;;;12.97;4.10;;;20.40;37.00;;;;;;5105723;28;20227;-81
2022/07/14 00:07:19;;;;;;;7.73;3.80;;;20.40;36.00;;;;;;5118424;28;20173;-82
2022/07/14 00:09:44;;;;;;;9.13;3.83;;;20.50;33.80;;;;;;5103666;28;20606;-82
2022/07/14 00:12:10;;;;;;;9.80;3.73;;;20.50;32.70;;;;;;5104952;28;20201;-83
2022/07/14 00:14:36;;;;;;;9.87;4.07;;;20.50;33.10;;;;;;5106425;28;20648;-81
2022/07/14 00:17:01;;;;;;;9.90;4.20;;;20.30;33.90;;;;;;5104603;28;20661;-82
2022/07/14 00:19:28;;;;;;;7.70;3.37;;;20.30;34.00;;;;;;5100790;28;20235;-82
2022/07/14 00:21:54;;;;;;;10.00;4.13;;;20.40;32.60;;;;;;5104767;28;20670;-81
2022/07/14 00:24:20;;;;;;;8.37;3.53;;;20.30;32.60;;;;;;5128778;28;20180;-82
2022/07/14 00:26:45;;;;;;;10.43;3.63;;;20.30;33.50;;;;;;5117541;28;20171;-81
2022/07/14 00:29:11;;;;;;;8.40;4.00;;;20.40;33.70;;;;;;5128513;28;20167;-80
2022/07/14 00:31:37;;;;;;;7.03;3.53;;;20.30;37.20;;;;;;5128812;27;20672;-82
2022/07/14 00:34:02;;;;;;;7.97;3.70;;;20.30;37.90;;;;;;5149165;27;20169;-83
2022/07/14 00:36:29;;;;;;;9.17;3.90;;;20.30;37.50;;;;;;5130153;27;20208;-80
2022/07/14 00:38:56;;;;;;;9.70;4.33;;;20.30;42.40;;;;;;5150157;27;20168;-83
2022/07/14 00:41:22;;;;;;;7.10;3.93;;;20.30;39.20;;;;;;5148523;27;20215;-81
2022/07/14 00:43:49;;;;;;;6.97;3.50;;;20.30;40.10;;;;;;5127003;27;20185;-81
2022/07/14 00:46:15;;;;;;;6.87;3.83;;;20.20;41.50;;;;;;5142753;27;20227;-83
2022/07/14 00:48:41;;;;;;;9.80;3.40;;;20.10;42.50;;;;;;5125344;27;20169;-81
2022/07/14 00:51:07;;;;;;;12.40;4.13;;;20.10;45.70;;;;;;5141528;27;20162;-83
2022/07/14 00:53:32;;;;;;;11.80;4.67;;;20.20;44.20;;;;;;5151216;27;20583;-82
2022/07/14 00:55:58;;;;;;;9.50;3.97;;;20.10;43.90;;;;;;5130689;27;20239;-83
2022/07/14 00:58:24;;;;;;;9.83;3.83;;;20.00;44.20;;;;;;5149063;27;20172;-82
2022/07/14 01:00:50;;;;;;;7.97;4.10;;;19.90;46.80;;;;;;5151323;27;20218;-82
2022/07/14 01:03:15;;;;;;;9.80;3.90;;;19.90;47.30;;;;;;5146606;27;20171;-82
2022/07/14 01:05:41;;;;;;;11.40;4.30;;;19.90;46.50;;;;;;5125891;27;20173;-82
2022/07/14 01:08:07;;;;;;;11.17;3.83;;;20.00;43.90;;;;;;5125789;27;20175;-82
2022/07/14 01:10:34;;;;;;;9.13;4.00;;;20.00;43.70;;;;;;5128077;27;20203;-81
2022/07/14 01:13:02;;;;;;;9.07;3.93;;;19.80;47.20;;;;;;5139073;27;20164;-82
2022/07/14 01:15:28;;;;;;;8.30;4.10;;;19.80;47.20;;;;;;5125208;27;20176;-81
2022/07/14 01:17:54;;;;;;;10.40;4.03;;;19.70;49.20;;;;;;5121289;27;20288;-80
2022/07/14 01:20:20;;;;;;;10.73;4.30;;;19.70;53.10;;;;;;5142882;27;20193;-81
2022/07/14 01:22:46;;;;;;;11.90;4.47;;;19.60;54.30;;;;;;5146722;27;20166;-82
2022/07/14 01:25:13;;;;;;;10.03;4.03;;;19.50;57.20;;;;;;5140124;27;20186;-82
2022/07/14 01:27:39;;;;;;;15.57;4.50;;;19.50;59.60;;;;;;5141707;27;20177;-81
2022/07/14 01:30:05;;;;;;;9.57;4.07;;;19.40;62.60;;;;;;5142688;27;20181;-82
2022/07/14 01:32:31;;;;;;;11.70;4.13;;;19.40;65.80;;;;;;5146369;27;20186;-82
2022/07/14 01:34:57;;;;;;;8.93;4.33;;;19.30;67.80;;;;;;5145486;27;20171;-81
2022/07/14 01:37:22;;;;;;;12.37;4.20;;;19.20;70.50;;;;;;5119008;28;20172;-83
2022/07/14 01:39:48;;;;;;;10.93;4.70;;;19.30;72.00;;;;;;5138512;28;20162;-83
2022/07/14 01:42:14;;;;;;;10.33;4.40;;;19.40;69.00;;;;;;5119903;28;20211;-82
2022/07/14 01:44:40;;;;;;;10.57;4.10;;;19.40;68.80;;;;;;5135966;28;20168;-82
2022/07/14 01:47:06;;;;;;;9.67;4.73;;;19.50;71.40;;;;;;5118698;27;20630;-83
2022/07/14 01:49:32;;;;;;;11.50;4.83;;;19.50;69.50;;;;;;5139186;27;20166;-82
2022/07/14 01:51:57;;;;;;;9.30;4.57;;;19.30;74.20;;;;;;5139509;27;20175;-81
2022/07/14 01:54:26;;;;;;;11.33;4.27;;;19.20;78.00;;;;;;5120701;27;20182;-83
2022/07/14 01:56:52;;;;;;;12.00;4.80;;;19.10;82.30;;;;;;5120304;27;20522;-83
2022/07/14 01:59:17;;;;;;;9.77;4.83;;;19.10;86.50;;;;;;5139784;27;20182;-82
2022/07/14 02:01:44;;;;;;;10.87;4.50;;;19.20;87.20;;;;;;5139285;27;20621;-80
2022/07/14 02:04:15;;;;;;;10.93;4.60;;;19.20;90.10;;;;;;5120423;27;20172;-83
2022/07/14 02:06:43;;;;;;;9.40;4.67;;;19.20;90.10;;;;;;5138964;27;20246;-81
2022/07/14 02:09:09;;;;;;;11.40;4.70;;;19.20;90.50;;;;;;5120554;27;20168;-83
2022/07/14 02:14:20;;;;;;;9.77;4.87;;;19.10;90.80;;;;;;5140011;27;20684;-82
2022/07/14 02:16:45;;;;;;;14.77;5.63;;;19.00;93.00;;;;;;5119943;27;20175;-82
2022/07/14 02:19:11;;;;;;;11.47;5.20;;;18.90;94.40;;;;;;5138430;27;20183;-82
2022/07/14 02:21:39;;;;;;;13.17;5.53;;;19.00;96.80;;;;;;5138762;27;20203;-83
2022/07/14 02:24:06;;;;;;;14.80;5.97;;;19.00;97.30;;;;;;5141335;27;20163;-81
2022/07/14 02:26:32;;;;;;;11.90;5.40;;;19.00;97.90;;;;;;5148608;27;20170;-82
2022/07/14 02:28:58;;;;;;;13.90;5.70;;;19.00;95.10;;;;;;5142747;27;20244;-82
2022/07/14 02:31:23;;;;;;;11.67;4.53;;;19.10;96.60;;;;;;5129638;27;20214;-82
2022/07/14 02:33:52;;;;;;;9.97;4.10;;;19.10;94.30;;;;;;5122761;27;20228;-82
2022/07/14 02:36:19;;;;;;;8.03;4.90;;;19.10;90.30;;;;;;5141492;27;20247;-82
2022/07/14 02:38:44;;;;;;;11.50;4.80;;;19.10;84.40;;;;;;5137069;27;20163;-82
2022/07/14 02:41:10;;;;;;;8.60;4.50;;;19.20;84.40;;;;;;5158918;27;20267;-83
2022/07/14 02:43:36;;;;;;;11.03;4.70;;;19.10;81.20;;;;;;5154839;27;20506;-81
2022/07/14 02:46:03;;;;;;;9.37;4.80;;;19.20;81.60;;;;;;5157380;27;20155;-82
2022/07/14 02:48:29;;;;;;;9.70;4.30;;;19.10;84.30;;;;;;5144234;27;20180;-80
2022/07/14 02:50:59;;;;;;;8.57;4.17;;;19.10;82.70;;;;;;5143124;27;20183;-81
2022/07/14 02:53:28;;;;;;;12.80;4.70;;;19.10;85.20;;;;;;5144633;27;20156;-82
2022/07/14 02:56:00;;;;;;;10.27;4.40;;;19.10;85.30;;;;;;5151512;27;20176;-82
2022/07/14 02:58:33;;;;;;;8.33;4.40;;;19.10;90.50;;;;;;5138930;27;20242;-82
2022/07/14 03:00:59;;;;;;;11.53;4.97;;;19.10;91.90;;;;;;5121974;27;20219;-83
2022/07/14 03:03:25;;;;;;;11.97;4.80;;;18.90;93.30;;;;;;5154127;27;20254;-82
2022/07/14 03:05:51;;;;;;;11.97;5.90;;;18.80;94.60;;;;;;5128044;27;20267;-82
2022/07/14 03:08:17;;;;;;;11.47;5.37;;;18.70;96.80;;;;;;5154106;27;20175;-82
2022/07/14 03:10:43;;;;;;;15.30;6.60;;;18.60;97.40;;;;;;5139949;27;20160;-82
2022/07/14 03:13:09;;;;;;;12.50;5.80;;;18.60;99.10;;;;;;5161769;27;20157;-81
2022/07/14 03:15:36;;;;;;;11.53;6.37;;;18.70;99.90;;;;;;5144258;27;20159;-82
2022/07/14 03:18:02;;;;;;;15.47;6.00;;;18.60;99.90;;;;;;5139109;27;20222;-81
2022/07/14 03:20:29;;;;;;;14.40;6.27;;;18.60;99.90;;;;;;5136440;27;20756;-81
2022/07/14 03:22:55;;;;;;;13.40;7.30;;;18.60;99.90;;;;;;5121434;27;20246;-83
2022/07/14 03:25:21;;;;;;;12.23;6.20;;;18.50;99.90;;;;;;5140366;27;20168;-83
2022/07/14 03:27:48;;;;;;;13.27;6.30;;;18.60;99.90;;;;;;5119329;27;20175;-83
2022/07/14 03:30:14;;;;;;;11.30;5.83;;;18.70;99.90;;;;;;5138470;27;20686;-82
2022/07/14 03:32:41;;;;;;;12.83;5.50;;;18.80;99.90;;;;;;5119186;27;20189;-81
2022/07/14 03:35:07;;;;;;;13.57;6.33;;;18.70;98.30;;;;;;5137116;27;20190;-83
2022/07/14 03:37:34;;;;;;;15.60;6.27;;;18.70;98.40;;;;;;5137675;27;20167;-83
2022/07/14 03:40:05;;;;;;;11.67;5.73;;;18.70;98.40;;;;;;5138262;27;20163;-82
2022/07/14 03:42:31;;;;;;;10.37;5.17;;;18.70;98.50;;;;;;5119401;27;20301;-82
2022/07/14 03:44:56;;;;;;;13.63;6.30;;;18.60;97.40;;;;;;5138416;27;20246;-82
2022/07/14 03:47:23;;;;;;;13.97;6.33;;;18.50;97.80;;;;;;5120090;27;20179;-83
2022/07/14 03:49:49;;;;;;;11.83;6.43;;;18.50;98.80;;;;;;5124733;27;20172;-82
2022/07/14 03:52:15;;;;;;;14.93;6.33;;;18.50;98.30;;;;;;5122978;27;20255;-82
2022/07/14 03:54:44;;;;;;;12.33;6.10;;;18.50;99.90;;;;;;5119806;27;20170;-81
2022/07/14 03:57:11;;;;;;;13.60;5.70;;;18.60;99.90;;;;;;5118507;27;20167;-83
2022/07/14 03:59:40;;;;;;;10.77;5.37;;;18.80;99.00;;;;;;5137260;27;20160;-82
2022/07/14 04:02:07;;;;;;;10.97;5.43;;;18.80;95.10;;;;;;5118538;27;20227;-82
2022/07/14 04:04:33;;;;;;;11.87;5.60;;;18.90;95.10;;;;;;5118233;27;20175;-83
2022/07/14 04:06:59;;;;;;;12.43;6.00;;;18.90;93.60;;;;;;5136728;27;20171;-82
2022/07/14 04:09:25;;;;;;;13.10;6.40;;;18.90;91.90;;;;;;5118887;27;20200;-82
2022/07/14 04:11:51;;;;;;;10.30;5.97;;;19.00;91.80;;;;;;5118526;27;20191;-81
2022/07/14 04:14:17;;;;;;;12.53;5.50;;;18.90;91.00;;;;;;5119341;27;20638;-82
2022/07/14 04:16:43;;;;;;;11.83;5.23;;;18.90;88.00;;;;;;5119045;27;20185;-82
2022/07/14 04:19:09;;;;;;;12.43;5.73;;;18.90;87.90;;;;;;5118334;27;20194;-82
2022/07/14 04:21:36;;;;;;;12.77;5.90;;;18.90;86.90;;;;;;5119119;27;20221;-81
2022/07/14 04:24:01;;;;;;;9.07;5.20;;;18.80;87.60;;;;;;5137575;27;20705;-82
2022/07/14 04:26:27;;;;;;;13.37;5.87;;;18.80;90.50;;;;;;5143902;27;20174;-83
2022/07/14 04:28:53;;;;;;;15.03;6.13;;;18.80;91.10;;;;;;5138424;27;20171;-83
2022/07/14 04:31:19;;;;;;;8.60;5.67;;;18.70;93.10;;;;;;5124489;27;20229;-81
2022/07/14 04:33:46;;;;;;;10.07;5.00;;;18.80;92.60;;;;;;5156282;27;20177;-82
2022/07/14 04:36:13;;;;;;;13.57;5.73;;;18.90;90.40;;;;;;5147354;27;20180;-83
2022/07/14 04:38:38;;;;;;;12.17;5.60;;;18.90;91.40;;;;;;5143080;27;20608;-82
2022/07/14 04:41:04;;;;;;;10.23;5.40;;;18.80;91.50;;;;;;5122694;27;20215;-82
2022/07/14 04:43:30;;;;;;;13.10;5.70;;;18.80;92.20;;;;;;5123626;27;20270;-83
2022/07/14 04:45:55;;;;;;;15.27;5.57;;;18.90;91.10;;;;;;5143645;27;20701;-81
2022/07/14 04:48:21;;;;;;;12.97;5.40;;;18.90;91.30;;;;;;5116850;27;20203;-82
2022/07/14 04:53:36;;;;;;;12.83;6.00;;;19.00;85.40;;;;;;5135254;27;20226;-82
2022/07/14 04:56:02;;;;;;;14.90;6.83;;;19.00;85.50;;;;;;5134749;27;20196;-82
2022/07/14 04:58:30;;;;;;;15.03;6.27;;;19.00;88.40;;;;;;5118467;27;20200;-80
2022/07/14 05:00:58;;;;;;;13.67;7.23;;;19.00;85.70;;;;;;5118419;27;20214;-83
2022/07/14 05:03:25;;;;;;;13.67;6.73;;;19.00;88.40;;;;;;5100543;27;20185;-83
2022/07/14 05:05:51;;;;;;;14.23;6.63;;;19.00;88.50;;;;;;5117057;27;20176;-82
2022/07/14 05:08:16;;;;;;;12.50;7.20;;;18.90;89.60;;;;;;5117256;27;20184;-83
2022/07/14 05:10:42;;;;;;;14.03;5.90;;;18.80;91.00;;;;;;5136770;27;20171;-83
2022/07/14 05:13:08;;;;;;;14.83;7.00;;;18.60;93.70;;;;;;5136523;27;20258;-83
2022/07/14 05:15:34;;;;;;;18.33;6.27;;;18.60;93.10;;;;;;5136572;27;20171;-81
2022/07/14 05:17:59;;;;;;;12.67;6.33;;;18.50;94.70;;;;;;5136833;27;20182;-83
2022/07/14 05:20:25;;;;;;;11.93;5.57;;;18.40;94.80;;;;;;5153891;27;20283;-83
2022/07/14 05:22:51;;;;;;;14.20;6.13;;;18.30;95.80;;;;;;5132003;27;20171;-83
2022/07/14 05:25:20;;;;;;;14.17;6.80;;;18.30;97.90;;;;;;5123759;28;20522;-84
2022/07/14 05:28:01;;;;;;;15.20;7.03;;;18.30;99.90;;;;;;5135272;27;20162;-84
2022/07/14 05:30:27;;;;;;;12.90;7.00;;;18.20;99.90;;;;;;5118337;28;20185;-84
2022/07/14 05:32:56;;;;;;;13.37;6.90;;;18.20;99.90;;;;;;5138313;27;20193;-84
2022/07/14 05:35:22;;;;;;;16.80;7.23;;;18.20;99.90;;;;;;5124511;28;20649;-84
2022/07/14 05:37:47;;;;;;;16.33;7.53;;;18.30;99.90;;;;;;5131122;28;20197;-83
2022/07/14 05:40:13;;;;;;;15.13;7.80;;;18.30;99.90;;;;;;5130245;28;20175;-84
2022/07/14 05:42:40;;;;;;;13.03;6.20;;;18.40;99.90;;;;;;5121405;28;20205;-84
2022/07/14 05:45:07;;;;;;;10.13;6.40;;;18.40;96.80;;;;;;5136889;28;20160;-82
2022/07/14 05:47:33;;;;;;;15.57;6.33;;;18.50;95.90;;;;;;5134735;28;20614;-84
2022/07/14 05:49:59;;;;;;;15.43;6.50;;;18.50;93.90;;;;;;5134395;28;20174;-83
2022/07/14 05:52:25;;;;;;;12.03;6.60;;;18.50;95.40;;;;;;5134614;28;20255;-82
2022/07/14 05:54:50;;;;;;;13.10;6.30;;;18.60;95.80;;;;;;5116399;28;20176;-82
2022/07/14 05:57:16;;;;;;;14.93;6.50;;;18.50;92.70;;;;;;5135133;28;20161;-83
2022/07/14 05:59:42;;;;;;;15.90;6.63;;;18.60;94.00;;;;;;5135220;28;20174;-83
2022/07/14 06:02:08;;;;;;;14.17;8.30;;;18.70;93.80;;;;;;5135223;28;20279;-83
2022/07/14 06:04:34;;;;;;;12.83;7.33;;;18.80;90.80;;;;;;5125723;28;20156;-82
2022/07/14 06:07:00;;;;;;;13.83;6.57;;;19.00;90.00;;;;;;5144422;28;20267;-82
2022/07/14 06:09:25;;;;;;;13.30;6.23;;;19.10;84.10;;;;;;5130162;28;20176;-79
2022/07/14 06:11:51;;;;;;;12.53;6.13;;;19.40;78.60;;;;;;5155250;27;20193;-80
2022/07/14 06:14:18;;;;;;;16.93;6.53;;;19.60;70.30;;;;;;5134487;28;20228;-79
2022/07/14 06:16:43;;;;;;;10.90;5.53;;;20.00;60.40;;;;;;5157033;27;20187;-79
2022/07/14 06:19:09;;;;;;;15.80;5.90;;;20.10;51.10;;;;;;5130097;28;20192;-79
2022/07/14 06:21:35;;;;;;;12.20;5.63;;;20.10;48.20;;;;;;5116889;28;20214;-79
2022/07/14 06:24:00;;;;;;;12.93;5.97;;;20.20;41.10;;;;;;5116561;28;20586;-80
2022/07/14 06:26:29;;;;;;;16.20;6.10;;;20.00;37.30;;;;;;5134325;28;20185;-80
2022/07/14 06:28:55;;;;;;;14.00;6.10;;;20.10;45.00;;;;;;5134779;28;20193;-78
2022/07/14 06:31:20;;;;;;;14.90;5.80;;;20.20;38.00;;;;;;5116795;28;20193;-79
2022/07/14 06:33:46;;;;;;;9.13;5.53;;;20.30;34.00;;;;;;5135143;27;20167;-79
2022/07/14 06:36:12;;;;;;;11.77;5.97;;;20.40;31.10;;;;;;5139610;27;20703;-80
2022/07/14 06:38:38;;;;;;;13.80;6.80;;;20.40;28.70;;;;;;5162201;27;20150;-81
2022/07/14 06:41:03;;;;;;;14.13;6.97;;;20.30;33.40;;;;;;5161756;27;20217;-83
2022/07/14 06:43:29;;;;;;;14.27;6.20;;;20.10;36.30;;;;;;5137114;27;20515;-81
2022/07/14 06:45:58;;;;;;;12.70;6.97;;;20.00;40.40;;;;;;5123816;27;20175;-83
2022/07/14 06:48:27;;;;;;;13.37;6.90;;;19.80;49.80;;;;;;5139224;27;20154;-83
2022/07/14 06:51:00;;;;;;;13.90;6.53;;;19.90;51.20;;;;;;5139141;27;20165;-82
2022/07/14 06:53:26;;;;;;;12.27;6.50;;;20.00;52.70;;;;;;5119444;27;20174;-84
2022/07/14 06:55:52;;;;;;;11.57;5.13;;;20.10;51.20;;;;;;5138275;27;20165;-84
2022/07/14 06:58:18;;;;;;;9.77;4.00;;;20.20;43.20;;;;;;5119751;27;20170;-81
2022/07/14 07:00:43;;;;;;;10.20;4.30;;;20.30;21.60;;;;;;5137803;27;20205;-81
2022/07/14 07:03:11;;;;;;;13.00;4.53;;;20.20;21.20;;;;;;5122203;27;20162;-82
2022/07/14 07:08:23;;;;;;;10.33;4.80;;;20.00;31.00;;;;;;5141060;27;20172;-82
2022/07/14 07:10:49;;;;;;;11.30;4.50;;;19.90;26.80;;;;;;5142134;27;20245;-83
2022/07/14 07:13:16;;;;;;;10.17;4.93;;;19.90;29.20;;;;;;5121606;27;20227;-82
2022/07/14 07:15:41;;;;;;;11.50;5.03;;;20.10;27.40;;;;;;5139657;27;20169;-81
2022/07/14 07:18:08;;;;;;;8.93;4.30;;;20.20;22.60;;;;;;5141701;27;20195;-83
2022/07/14 07:20:36;;;;;;;9.37;4.43;;;20.20;23.40;;;;;;5142112;27;20162;-83
2022/07/14 07:23:03;;;;;;;12.63;4.23;;;20.30;16.00;;;;;;5139569;27;20259;-84
2022/07/14 07:25:29;;;;;;;11.30;4.93;;;20.40;7.10;;;;;;5138726;27;20167;-83
2022/07/14 07:27:55;;;;;;;11.83;5.30;;;20.50;5.40;;;;;;5120058;27;20265;-84
2022/07/14 07:30:20;;;;;;;9.70;5.07;;;20.60;9.70;;;;;;5120545;27;20174;-85
2022/07/14 07:32:46;;;;;;;9.90;4.40;;;20.40;11.50;;;;;;5139556;27;20233;-83
2022/07/14 07:35:12;;;;;;;10.00;4.50;;;20.30;11.30;;;;;;5125895;27;20536;-82
2022/07/14 07:37:40;;;;;;;10.30;4.87;;;20.20;5.30;;;;;;5146785;27;20705;-83
2022/07/14 07:40:07;;;;;;;11.87;4.63;;;20.10;12.50;;;;;;5124741;27;20225;-84
2022/07/14 07:42:33;;;;;;;8.70;4.43;;;20.00;6.90;;;;;;5120310;27;20673;-83
2022/07/14 07:45:00;;;;;;;9.30;3.70;;;20.00;1.00;;;;;;5120506;27;20197;-83
2022/07/14 07:47:27;;;;;;;10.90;4.10;;;19.90;1.00;;;;;;5124957;27;20189;-82
2022/07/14 07:49:53;;;;;;;9.67;4.40;;;20.10;10.30;;;;;;5155876;27;20276;-82
2022/07/14 07:52:25;;;;;;;7.43;3.80;;;20.10;7.80;;;;;;5140203;27;20169;-82
2022/07/14 07:54:50;;;;;;;8.70;4.10;;;20.00;4.50;;;;;;5138826;27;20529;-83
2022/07/14 07:57:16;;;;;;;11.87;4.70;;;20.10;13.00;;;;;;5139561;27;20227;-83
2022/07/14 07:59:42;;;;;;;13.63;5.03;;;20.20;16.90;;;;;;5138623;27;20168;-83
2022/07/14 08:02:08;;;;;;;9.27;4.90;;;20.10;16.20;;;;;;5109347;27;20229;-84
2022/07/14 08:04:33;;;;;;;10.67;4.77;;;20.10;19.00;;;;;;5139879;27;20169;-83
2022/07/14 08:06:59;;;;;;;10.10;4.50;;;20.10;16.20;;;;;;5142242;27;20232;-83
2022/07/14 08:09:25;;;;;;;14.67;4.70;;;20.10;18.00;;;;;;5135327;27;20172;-83
2022/07/14 08:11:51;;;;;;;11.80;4.57;;;20.10;20.90;;;;;;5128571;27;20173;-83
2022/07/14 08:17:03;;;;;;;12.27;4.50;;;20.50;18.30;;;;;;5137381;27;20173;-83
2022/07/14 08:19:29;;;;;;;11.97;4.63;;;20.70;4.90;;;;;;5138564;27;20189;-81
2022/07/14 08:21:54;;;;;;;10.13;2.97;;;20.80;1.00;;;;;;5138228;27;20281;-83
2022/07/14 08:24:20;;;;;;;10.00;3.90;;;20.70;1.00;;;;;;5135484;27;20631;-83
2022/07/14 08:26:47;;;;;;;10.00;4.30;;;20.50;1.00;;;;;;5134352;27;20186;-81
2022/07/14 08:29:14;;;;;;;10.57;4.50;;;20.40;1.00;;;;;;5134713;27;20176;-81
2022/07/14 08:31:40;;;;;;;10.23;3.70;;;20.30;1.00;;;;;;5122607;27;20183;-82
2022/07/14 08:34:08;;;;;;;7.20;3.20;;;20.30;1.00;;;;;;5099034;28;20654;-83
2022/07/14 08:36:34;;;;;;;7.73;3.47;;;20.30;1.00;;;;;;5122464;27;20200;-82
2022/07/14 08:39:01;;;;;;;9.67;4.10;;;20.40;1.00;;;;;;5135405;27;20178;-83
2022/07/14 08:41:28;;;;;;;10.30;4.07;;;20.40;1.00;;;;;;5119139;27;20262;-82
2022/07/14 08:43:55;;;;;;;10.50;3.53;;;20.60;1.00;;;;;;5097988;28;20502;-82
2022/07/14 08:46:23;;;;;;;10.37;3.77;;;20.70;1.00;;;;;;5116189;28;20259;-81
2022/07/14 08:48:49;;;;;;;10.53;3.33;;;21.00;1.00;;;;;;5116301;28;20167;-82
2022/07/14 08:51:16;;;;;;;9.33;3.23;;;21.20;1.00;;;;;;5117631;28;20170;-81
2022/07/14 08:53:44;;;;;;;7.20;2.47;;;21.30;1.00;;;;;;5123594;27;20172;-82
2022/07/14 08:56:11;;;;;;;8.20;2.77;;;21.50;1.00;;;;;;5105073;27;20234;-82
2022/07/14 08:58:41;;;;;;;9.47;3.40;;;21.40;1.00;;;;;;5117758;27;20623;-83
2022/07/14 09:01:07;;;;;;;8.63;3.77;;;21.30;1.00;;;;;;5118544;27;20260;-84
2022/07/14 09:03:33;;;;;;;8.57;3.33;;;21.40;1.00;;;;;;5111263;28;20213;-83
2022/07/14 09:05:59;;;;;;;7.43;3.37;;;21.40;1.00;;;;;;5117961;27;20256;-83
2022/07/14 09:08:24;;;;;;;9.50;3.80;;;21.50;1.00;;;;;;5115659;28;20175;-82
2022/07/14 09:10:50;;;;;;;9.97;3.13;;;21.40;1.00;;;;;;5116244;28;20168;-83
2022/07/14 09:13:21;;;;;;;13.17;3.47;;;21.40;1.00;;;;;;5116794;28;20175;-82
2022/07/14 09:15:48;;;;;;;12.73;3.20;;;21.30;1.00;;;;;;5099587;27;20192;-81
2022/07/14 09:18:22;;;;;;;8.57;2.93;;;21.40;1.00;;;;;;5136262;27;20213;-80
2022/07/14 09:20:48;;;;;;;7.53;2.80;;;21.70;1.00;;;;;;5137282;27;20693;-82
2022/07/14 09:23:14;;;;;;;11.97;3.60;;;21.80;1.00;;;;;;5125342;27;20180;-81
2022/07/14 09:25:40;;;;;;;9.40;2.80;;;21.80;1.00;;;;;;5157793;27;20176;-82
2022/07/14 09:28:09;;;;;;;8.03;2.77;;;21.90;1.00;;;;;;5146916;27;20256;-83
2022/07/14 09:30:35;;;;;;;8.70;2.80;;;22.00;1.00;;;;;;5097863;28;20196;-82
2022/07/14 09:33:03;;;;;;;9.10;3.27;;;21.80;1.00;;;;;;5133097;27;20198;-81
2022/07/14 09:35:34;;;;;;;6.80;2.53;;;21.80;1.00;;;;;;5137150;27;20258;-82
2022/07/14 09:38:22;;;;;;;6.00;2.53;;;21.80;1.00;;;;;;5156903;27;20180;-82
2022/07/14 09:40:50;;;;;;;7.00;2.83;;;22.00;1.00;;;;;;5165590;27;20272;-82
2022/07/14 09:43:17;;;;;;;10.33;2.87;;;21.90;1.00;;;;;;5154384;27;20171;-79
2022/07/14 09:45:49;;;;;;;9.63;3.00;;;22.10;1.00;;;;;;5118052;28;20176;-81
2022/07/14 09:48:21;;;;;;;6.43;2.30;;;22.30;1.00;;;;;;5136721;28;20505;-84
2022/07/14 09:50:54;;;;;;;7.00;2.23;;;22.20;99.90;;;;;;5135319;28;20168;-82
2022/07/14 09:53:23;;;;;;;7.07;2.17;;;22.30;1.00;;;;;;5110856;28;20264;-81
2022/07/14 09:55:53;;;;;;;10.33;3.37;;;22.50;99.90;;;;;;5108899;28;20188;-81
2022/07/14 09:58:31;;;;;;;6.90;3.10;;;22.70;1.00;;;;;;5141595;28;20194;-83
2022/07/14 10:01:08;;;;;;;10.60;2.70;;;22.80;99.90;;;;;;5133597;27;20193;-83
2022/07/14 10:03:37;;;;;;;9.00;3.07;;;22.80;99.90;;;;;;5155480;27;20172;-81
2022/07/14 10:06:04;;;;;;;7.77;2.27;;;22.80;99.90;;;;;;5148534;27;20181;-82
2022/07/14 10:08:34;;;;;;;8.90;3.00;;;22.90;99.90;;;;;;5109437;28;20207;-81
2022/07/14 10:11:03;;;;;;;6.07;2.73;;;22.90;99.90;;;;;;5120008;28;20203;-82
2022/07/14 10:13:30;;;;;;;10.17;3.00;;;22.80;1.00;;;;;;5123575;28;20163;-80
2022/07/14 10:15:56;;;;;;;7.40;2.57;;;22.80;99.90;;;;;;5101870;28;20208;-83
2022/07/14 10:18:23;;;;;;;9.47;2.87;;;22.70;99.90;;;;;;5101788;28;20194;-83
2022/07/14 10:20:52;;;;;;;7.03;2.50;;;22.80;99.90;;;;;;5119276;28;20229;-81
2022/07/14 10:23:19;;;;;;;10.50;2.70;;;23.00;99.90;;;;;;5105221;28;20179;-81
2022/07/14 10:25:50;;;;;;;7.60;2.70;;;22.90;1.00;;;;;;5102115;28;20200;-83
2022/07/14 10:28:16;;;;;;;7.87;2.57;;;22.90;99.90;;;;;;5103447;27;20613;-83
2022/07/14 10:31:10;;;;;;;6.53;2.40;;;22.80;99.90;;;;;;5110745;27;20294;-82
2022/07/14 10:34:00;;;;;;;9.67;2.67;;;22.90;99.90;;;;;;5142542;27;20185;-81
2022/07/14 10:36:28;;;;;;;6.77;2.40;;;22.90;1.00;;;;;;5122358;27;20209;-83
2022/07/14 10:39:06;;;;;;;7.47;2.40;;;23.10;99.90;;;;;;5134892;27;20673;-83
2022/07/14 10:42:02;;;;;;;5.20;2.07;;;23.30;99.90;;;;;;5121802;27;20206;-82
2022/07/14 10:44:31;;;;;;;8.27;3.57;;;23.40;99.90;;;;;;5119359;27;20260;-82
2022/07/14 10:47:14;;;;;;;7.00;2.40;;;23.70;99.90;;;;;;5124637;27;20263;-82
2022/07/14 10:50:20;;;;;;;10.07;2.73;;;23.90;99.90;;;;;;5145004;27;20537;-83
2022/07/14 10:53:05;;;;;;;5.83;2.43;;;23.90;1.00;;;;;;5058084;28;20169;-83
2022/07/14 10:55:31;;;;;;;7.10;2.77;;;23.90;99.90;;;;;;5061637;28;20173;-82
2022/07/14 10:58:04;;;;;;;8.00;2.00;;;24.00;99.90;;;;;;5108168;27;20174;-84
2022/07/14 11:00:58;;;;;;;7.63;2.10;;;24.10;1.00;;;;;;5136058;27;20204;-82
2022/07/14 11:03:45;;;;;;;6.93;2.37;;;24.00;99.90;;;;;;5153567;27;20186;-84
2022/07/14 11:06:18;;;;;;;7.17;2.20;;;24.00;99.90;;;;;;5147765;27;20223;-81
2022/07/14 11:09:18;;;;;;;7.63;2.10;;;24.00;1.00;;;;;;5123114;27;20166;-82
2022/07/14 11:12:09;;;;;;;4.80;1.90;;;23.70;99.90;;;;;;5139838;27;20188;-82
2022/07/14 11:14:42;;;;;;;4.90;1.90;;;23.90;1.00;;;;;;5140353;27;20245;-83
2022/07/14 11:17:39;;;;;;;5.30;1.90;;;23.90;1.00;;;;;;5150367;27;20193;-82
2022/07/14 11:20:08;;;;;;;5.53;2.00;;;24.10;99.90;;;;;;5137224;27;20185;-81
2022/07/14 11:22:34;;;;;;;4.37;1.97;;;24.20;1.00;;;;;;5128721;27;20209;-82
2022/07/14 11:25:01;;;;;;;5.13;1.77;;;24.10;99.90;;;;;;5125981;27;20170;-82
2022/07/14 11:27:38;;;;;;;6.47;1.90;;;23.80;99.90;;;;;;5121504;27;20200;-82
2022/07/14 11:30:28;;;;;;;6.23;1.70;;;23.90;1.00;;;;;;5140078;27;20173;-84
2022/07/14 11:33:02;;;;;;;5.53;1.90;;;23.80;1.00;;;;;;5138424;27;20198;-84
2022/07/14 11:38:48;;;;;;;4.57;1.73;;;23.70;99.90;;;;;;5055639;28;20231;-82
2022/07/14 11:41:14;;;;;;;6.53;2.40;;;23.70;99.90;;;;;;5056636;28;20622;-82
2022/07/14 11:43:46;;;;;;;5.17;2.00;;;23.90;1.00;;;;;;5068033;28;20230;-81
2022/07/14 11:46:17;;;;;;;6.07;1.90;;;24.20;1.00;;;;;;5112816;27;20166;-83
2022/07/14 11:48:51;;;;;;;5.93;2.00;;;24.20;99.90;;;;;;5120162;27;20512;-84
2022/07/14 11:51:18;;;;;;;6.93;1.60;;;24.10;1.00;;;;;;5121584;27;20199;-81
2022/07/14 11:53:45;;;;;;;3.70;1.63;;;24.10;1.00;;;;;;5140438;27;20170;-81
2022/07/14 11:56:11;;;;;;;3.83;1.67;;;24.20;1.00;;;;;;5139256;27;20182;-82
2022/07/14 11:58:41;;;;;;;3.90;1.60;;;24.20;1.00;;;;;;5139833;27;20166;-81
2022/07/14 12:01:08;;;;;;;4.87;1.83;;;24.10;1.00;;;;;;5119408;27;20633;-83
2022/07/14 12:03:35;;;;;;;7.23;1.90;;;24.10;1.00;;;;;;5131846;27;20234;-83
2022/07/14 12:06:02;;;;;;;6.37;2.20;;;24.30;5.40;;;;;;5111656;28;20174;-82
2022/07/14 12:08:35;;;;;;;8.67;2.10;;;24.40;1.00;;;;;;5137342;27;20183;-82
2022/07/14 12:11:10;;;;;;;6.57;2.57;;;24.50;51.70;;;;;;5127876;27;20246;-80
2022/07/14 12:13:55;;;;;;;9.77;2.80;;;24.50;14.80;;;;;;5121493;28;20166;-82
2022/07/14 12:16:23;;;;;;;9.73;2.40;;;24.70;99.90;;;;;;5137048;27;20247;-82
2022/07/14 12:18:55;;;;;;;8.30;2.67;;;24.60;99.90;;;;;;5123974;27;20206;-83
2022/07/14 12:21:35;;;;;;;6.73;2.20;;;24.70;1.00;;;;;;5124876;27;20209;-83
2022/07/14 12:24:02;;;;;;;9.53;2.70;;;24.50;1.00;;;;;;5134326;27;20262;-81
2022/07/14 12:26:28;;;;;;;5.80;2.10;;;24.60;1.00;;;;;;5123842;27;20186;-81
2022/07/14 12:28:58;;;;;;;8.20;2.47;;;24.50;1.00;;;;;;5105755;28;20186;-83
2022/07/14 12:31:24;;;;;;;9.00;2.03;;;24.50;1.00;;;;;;5099449;28;20249;-83
2022/07/14 12:33:57;;;;;;;5.77;2.07;;;24.70;1.00;;;;;;5098651;28;20539;-82
2022/07/14 12:36:30;;;;;;;6.93;2.13;;;24.70;99.90;;;;;;5128053;27;20174;-84
2022/07/14 12:38:58;;;;;;;8.30;2.00;;;24.90;39.00;;;;;;5125177;27;20266;-83
2022/07/14 12:41:25;;;;;;;4.23;1.73;;;24.90;1.00;;;;;;5148130;27;20679;-82
2022/07/14 12:43:52;;;;;;;6.70;2.43;;;24.50;1.00;;;;;;5151287;27;20177;-83
2022/07/14 12:46:23;;;;;;;5.10;1.90;;;24.60;1.00;;;;;;5122012;27;20638;-82
2022/07/14 12:48:54;;;;;;;4.97;1.90;;;24.80;1.00;;;;;;5121479;27;20644;-82
2022/07/14 12:51:29;;;;;;;5.33;2.07;;;25.00;99.90;;;;;;5136536;27;20173;-84
2022/07/14 12:54:15;;;;;;;5.20;1.80;;;24.90;1.00;;;;;;5124089;27;20193;-81
2022/07/14 12:56:41;;;;;;;4.73;1.63;;;24.80;1.00;;;;;;5125523;27;20246;-85
2022/07/14 12:59:10;;;;;;;4.33;1.80;;;24.60;1.00;;;;;;5121832;27;20655;-84
2022/07/14 13:01:57;;;;;;;4.07;1.70;;;24.50;1.00;;;;;;5124499;27;20214;-82
2022/07/14 13:04:46;;;;;;;6.50;1.90;;;24.30;99.90;;;;;;5139945;27;20219;-85